Weather at Kraków John Paul II International Airport

Public forecast

Using degrees Celsius for public forecast. Weather courtesy of forecast.io.

Current aviation weather report (METAR) for Kraków John Paul II International Airport

Retrieved 2020/10/31 19:30 UTC (0 seconds ago):

EPKK 311930Z 04003KT 5000 BR NSC 03/02 Q1024

Aviation forecast (TAF) for Kraków John Paul II International Airport

Retrieved 2020/10/31 18:33 UTC (29 minutes ago):

TAF EPKK 311730Z 3118/0118 VRB02KT CAVOK BECMG 3118/3120 3000 BR BECMG 3121/3123 1200 BR BECMG 3123/0101 0400 FG BKN002 BECMG 0107/0109 4000 BR BKN012 BECMG 0109/0111 9999 BKN020